Time;durP1;ratioP1;P1;durP2;ratioP2;P2;SDS_P1;SDS_P2;PMS_P1;PMS_P2;Temp;Humidity;BMP_temperature;BMP_pressure;BME280_temperature;BME280_humidity;BME280_pressure;Samples;Min_cycle;Max_cycle;Signal;HPM_P1;HPM_P2
2023/12/29 00:01:04;;;;;;;11.60;7.40;;;;;;;5.49;85.07;100392.68;108745;1258;137939;-64
2023/12/29 00:03:41;;;;;;;10.20;5.90;;;;;;;5.50;85.10;100389.05;108973;1256;65007;-64
2023/12/29 00:06:08;;;;;;;10.60;6.40;;;;;;;5.52;85.00;100387.42;108867;1257;138391;-65
2023/12/29 00:08:36;;;;;;;11.80;6.50;;;;;;;5.52;85.00;100385.66;108883;1257;60910;-65
2023/12/29 00:11:03;;;;;;;16.50;11.30;;;;;;;5.52;85.00;100383.20;108956;1257;60984;-63
2023/12/29 00:13:29;;;;;;;12.20;7.80;;;;;;;5.52;84.85;100382.34;108678;1256;138264;-64
2023/12/29 00:15:56;;;;;;;12.90;8.80;;;;;;;5.53;84.94;100384.50;109016;1257;68255;-64
2023/12/29 00:18:24;;;;;;;15.90;7.70;;;;;;;5.55;84.95;100385.25;108852;1256;138086;-63
2023/12/29 00:20:50;;;;;;;18.30;10.40;;;;;;;5.55;84.87;100383.67;108975;1256;59243;-66
2023/12/29 00:23:17;;;;;;;15.10;9.60;;;;;;;5.57;84.92;100372.09;105076;1257;60485;-66
2023/12/29 00:25:44;;;;;;;13.60;7.70;;;;;;;5.59;84.92;100367.86;108792;1256;138319;-66
2023/12/29 00:28:11;;;;;;;16.90;10.20;;;;;;;5.61;84.94;100369.33;108955;1257;67777;-62
2023/12/29 00:30:39;;;;;;;14.00;7.20;;;;;;;5.64;84.95;100366.98;108850;1256;138215;-65
2023/12/29 00:33:06;;;;;;;16.00;8.70;;;;;;;5.65;84.89;100364.41;108984;1257;59269;-64
2023/12/29 00:35:32;;;;;;;13.00;6.80;;;;;;;5.64;84.75;100356.20;108993;1254;60481;-63
2023/12/29 00:37:59;;;;;;;12.10;6.20;;;;;;;5.64;84.64;100354.29;108931;1254;138565;-63
2023/12/29 00:40:26;;;;;;;10.10;5.90;;;;;;;5.65;84.77;100350.84;108998;1254;65146;-63
2023/12/29 00:42:52;;;;;;;11.30;6.10;;;;;;;5.64;84.76;100351.52;108887;1254;137825;-65
2023/12/29 00:45:21;;;;;;;11.00;6.00;;;;;;;5.64;84.66;100347.83;109014;1254;60031;-65
2023/12/29 00:47:48;;;;;;;10.00;6.60;;;;;;;5.62;84.62;100347.95;109030;1254;60544;-64
2023/12/29 00:50:15;;;;;;;10.30;6.60;;;;;;;5.60;84.56;100347.00;108872;1254;138417;-64
2023/12/29 00:52:41;;;;;;;7.90;5.30;;;;;;;5.60;84.55;100347.52;109018;1254;64897;-63
2023/12/29 00:55:08;;;;;;;14.30;7.90;;;;;;;5.60;84.63;100351.34;108736;1254;138182;-63
2023/12/29 00:57:35;;;;;;;15.30;7.40;;;;;;;5.59;84.49;100345.58;107930;1254;59209;-61
2023/12/29 01:00:01;;;;;;;11.60;6.60;;;;;;;5.60;84.56;100342.11;104939;1260;60140;-63
2023/12/29 01:02:28;;;;;;;13.20;6.70;;;;;;;5.59;84.54;100348.89;108858;1254;139015;-64
2023/12/29 01:04:55;;;;;;;11.60;5.80;;;;;;;5.58;84.60;100343.97;109024;1254;66728;-64
2023/12/29 01:07:22;;;;;;;9.70;6.30;;;;;;;5.58;84.52;100344.66;108901;1254;138542;-64
2023/12/29 01:09:48;;;;;;;12.00;5.90;;;;;;;5.58;84.55;100344.12;109021;1254;59377;-64
2023/12/29 01:12:15;;;;;;;10.10;6.10;;;;;;;5.58;84.58;100342.05;108935;1254;139897;-64
2023/12/29 01:14:41;;;;;;;13.30;6.50;;;;;;;5.58;84.61;100347.25;109031;1254;72995;-64
2023/12/29 01:17:08;;;;;;;10.90;5.90;;;;;;;5.59;84.54;100341.91;109020;1254;66616;-64
2023/12/29 01:19:35;;;;;;;7.80;5.70;;;;;;;5.60;84.53;100334.81;108723;1256;138658;-64
2023/12/29 01:22:02;;;;;;;11.80;6.20;;;;;;;5.61;84.50;100323.71;109018;1254;58289;-63
2023/12/29 01:24:28;;;;;;;9.80;6.80;;;;;;;5.62;84.51;100316.44;108819;1254;138239;-63
2023/12/29 01:26:55;;;;;;;9.30;5.80;;;;;;;5.65;84.58;100310.80;109055;1254;71834;-63
2023/12/29 01:29:22;;;;;;;10.20;6.30;;;;;;;5.67;84.56;100309.50;107131;1254;66738;-64
2023/12/29 01:31:49;;;;;;;10.30;5.70;;;;;;;5.70;84.56;100306.27;104745;1259;138272;-65
2023/12/29 01:34:15;;;;;;;9.80;5.80;;;;;;;5.71;84.49;100304.41;104944;1254;60437;-63
2023/12/29 01:36:42;;;;;;;10.40;4.90;;;;;;;5.71;84.47;100305.81;104760;1259;138354;-63
2023/12/29 01:39:09;;;;;;;7.50;4.70;;;;;;;5.72;84.48;100301.98;104996;1258;73762;-62
2023/12/29 01:41:35;;;;;;;7.70;5.00;;;;;;;5.72;84.45;100299.55;104900;1254;64991;-62
2023/12/29 01:44:02;;;;;;;9.90;5.30;;;;;;;5.70;84.41;100294.77;104674;1255;137895;-63
2023/12/29 01:46:29;;;;;;;8.10;5.10;;;;;;;5.66;84.27;100285.59;105006;1255;60485;-62
2023/12/29 01:48:57;;;;;;;8.50;5.10;;;;;;;5.62;84.38;100279.19;107307;1259;137916;-62
2023/12/29 01:51:25;;;;;;;9.30;5.50;;;;;;;5.59;84.30;100281.86;105033;1260;72321;-62
2023/12/29 01:53:55;;;;;;;10.00;6.00;;;;;;;5.56;84.31;100277.89;108832;1254;65610;-63
2023/12/29 01:56:22;;;;;;;11.60;6.10;;;;;;;5.53;84.25;100275.17;108674;1257;138370;-63
2023/12/29 01:58:49;;;;;;;13.00;7.10;;;;;;;5.50;84.31;100274.03;109042;1254;59712;-63
2023/12/29 02:01:16;;;;;;;10.20;6.90;;;;;;;5.48;84.28;100271.71;108768;1254;138250;-63
2023/12/29 02:03:44;;;;;;;11.90;8.10;;;;;;;5.47;84.17;100270.43;108850;1254;74261;-63
2023/12/29 02:06:10;;;;;;;10.50;7.40;;;;;;;5.44;84.26;100264.59;108718;1256;138219;-64
2023/12/29 02:08:37;;;;;;;12.60;7.90;;;;;;;5.43;84.30;100258.48;108869;1254;71935;-65
2023/12/29 02:11:04;;;;;;;11.40;7.90;;;;;;;5.43;84.35;100258.46;109022;1254;59690;-64
2023/12/29 02:13:31;;;;;;;14.10;9.20;;;;;;;5.42;84.24;100250.77;108936;1257;138772;-65
2023/12/29 02:16:00;;;;;;;14.40;6.70;;;;;;;5.40;84.20;100248.24;109038;1254;73889;-63
2023/12/29 02:18:27;;;;;;;11.30;7.30;;;;;;;5.38;84.25;100251.50;106004;1255;138768;-63
2023/12/29 02:20:54;;;;;;;11.40;6.30;;;;;;;5.37;84.21;100242.75;104857;1254;71666;-64
2023/12/29 02:23:20;;;;;;;13.70;8.70;;;;;;;5.34;84.20;100228.71;104860;1257;60578;-63
2023/12/29 02:25:47;;;;;;;12.70;7.80;;;;;;;5.32;84.17;100228.80;104814;1255;137956;-64
2023/12/29 02:28:23;;;;;;;8.90;5.60;;;;;;;5.29;84.26;100229.05;104889;1254;73477;-64
2023/12/29 02:30:57;;;;;;;9.70;5.80;;;;;;;5.24;84.26;100230.62;108718;1254;138200;-64
2023/12/29 02:33:25;;;;;;;11.50;5.90;;;;;;;5.19;84.27;100231.13;108820;1254;70678;-64
2023/12/29 02:35:52;;;;;;;11.20;5.70;;;;;;;5.16;84.27;100232.20;108811;1255;58423;-63
2023/12/29 02:38:19;;;;;;;8.40;4.80;;;;;;;5.12;84.28;100230.14;108955;1254;138029;-65
2023/12/29 02:40:46;;;;;;;9.00;5.50;;;;;;;5.11;84.34;100233.23;108829;1256;74177;-64
2023/12/29 02:43:12;;;;;;;10.20;5.40;;;;;;;5.14;84.57;100233.34;108656;1254;138225;-64
2023/12/29 02:45:39;;;;;;;8.60;4.70;;;;;;;5.19;84.71;100221.04;109048;1254;73054;-65
2023/12/29 02:48:06;;;;;;;7.60;4.40;;;;;;;5.27;84.82;100220.09;109014;1254;59068;-64
2023/12/29 02:50:33;;;;;;;8.70;4.90;;;;;;;5.30;84.68;100210.48;105055;1259;63277;-64
2023/12/29 02:53:00;;;;;;;9.30;4.50;;;;;;;5.30;84.50;100213.25;104870;1259;74868;-64
2023/12/29 02:55:27;;;;;;;8.00;4.80;;;;;;;5.26;84.32;100212.41;104541;1258;138915;-64
2023/12/29 02:57:53;;;;;;;8.20;4.70;;;;;;;5.21;84.36;100207.19;104886;1257;72095;-64
2023/12/29 03:00:20;;;;;;;7.20;3.80;;;;;;;5.18;84.33;100207.23;104760;1254;138343;-65
2023/12/29 03:02:47;;;;;;;7.80;4.10;;;;;;;5.13;84.36;100202.00;104973;1254;60485;-65
2023/12/29 03:05:14;;;;;;;6.80;4.00;;;;;;;5.09;84.38;100200.27;104815;1254;73489;-63
2023/12/29 03:07:41;;;;;;;11.10;4.10;;;;;;;5.04;84.35;100205.84;108617;1254;138196;-63
2023/12/29 03:10:08;;;;;;;5.60;3.40;;;;;;;4.99;84.33;100202.52;108792;1254;73022;-63
2023/12/29 03:12:35;;;;;;;11.20;4.10;;;;;;;4.95;84.37;100204.45;108912;1254;139841;-64
2023/12/29 03:15:02;;;;;;;9.20;4.80;;;;;;;4.93;84.41;100211.14;109028;1254;60870;-63
2023/12/29 03:17:29;;;;;;;9.40;4.20;;;;;;;4.93;84.62;100208.54;105488;1260;74307;-65
2023/12/29 03:19:56;;;;;;;11.50;4.70;;;;;;;4.99;84.86;100206.53;104823;1259;138630;-63
2023/12/29 03:22:22;;;;;;;7.80;3.70;;;;;;;5.07;84.94;100206.84;104830;1258;71163;-63
2023/12/29 03:24:49;;;;;;;7.80;3.80;;;;;;;5.15;85.02;100201.74;104856;1258;139853;-63
2023/12/29 03:27:16;;;;;;;9.00;3.70;;;;;;;5.22;85.06;100195.73;105050;1256;60798;-64
2023/12/29 03:29:42;;;;;;;5.50;3.70;;;;;;;5.25;84.94;100186.64;104981;1258;74980;-64
2023/12/29 03:32:09;;;;;;;7.70;3.50;;;;;;;5.27;84.86;100183.39;104934;1254;139157;-65
2023/12/29 03:34:36;;;;;;;8.90;3.60;;;;;;;5.26;84.76;100178.33;104780;1254;72037;-64
2023/12/29 03:37:02;;;;;;;9.10;3.90;;;;;;;5.26;84.74;100179.55;104593;1256;139197;-64
2023/12/29 03:39:29;;;;;;;6.60;3.50;;;;;;;5.29;84.78;100179.11;105027;1256;60873;-63
2023/12/29 03:41:56;;;;;;;6.40;3.50;;;;;;;5.34;84.84;100176.51;104818;1257;73890;-62
2023/12/29 03:44:23;;;;;;;6.00;3.30;;;;;;;5.39;84.88;100173.04;104845;1256;139254;-62
2023/12/29 03:46:51;;;;;;;7.20;4.10;;;;;;;5.46;84.90;100167.54;104981;1259;73515;-63
2023/12/29 03:49:19;;;;;;;6.60;3.40;;;;;;;5.50;84.84;100173.26;104821;1255;139108;-63
2023/12/29 03:51:46;;;;;;;8.00;3.90;;;;;;;5.53;84.76;100166.42;109060;1254;59109;-63
2023/12/29 03:54:12;;;;;;;8.80;3.90;;;;;;;5.55;84.64;100164.58;108948;1254;137861;-63
2023/12/29 03:56:39;;;;;;;6.50;4.40;;;;;;;5.56;84.49;100166.88;109030;1254;65038;-63
2023/12/29 03:59:06;;;;;;;9.90;3.50;;;;;;;5.53;84.23;100166.22;109026;1254;73688;-63
2023/12/29 04:01:33;;;;;;;5.80;3.30;;;;;;;5.46;84.10;100160.08;108905;1257;138212;-64
2023/12/29 04:04:00;;;;;;;6.40;3.40;;;;;;;5.41;83.99;100157.96;108551;1254;60128;-62
2023/12/29 04:06:27;;;;;;;7.60;3.30;;;;;;;5.34;83.91;100158.77;104796;1256;138342;-63
2023/12/29 04:08:53;;;;;;;11.50;3.40;;;;;;;5.29;83.99;100155.61;104931;1260;65516;-64
2023/12/29 04:11:20;;;;;;;8.40;3.40;;;;;;;5.25;84.01;100156.00;104740;1255;72961;-64
2023/12/29 04:13:47;;;;;;;5.50;3.20;;;;;;;5.22;84.15;100148.61;104831;1255;138315;-64
2023/12/29 04:16:13;;;;;;;6.40;3.40;;;;;;;5.20;84.10;100145.21;104919;1254;60620;-65
2023/12/29 04:18:40;;;;;;;9.40;3.90;;;;;;;5.18;84.25;100144.81;104752;1254;138223;-63
2023/12/29 04:21:09;;;;;;;10.20;4.10;;;;;;;5.16;84.19;100144.91;104767;1254;66702;-63
2023/12/29 04:23:35;;;;;;;5.50;3.30;;;;;;;5.14;84.23;100140.45;105041;1258;74716;-64
2023/12/29 04:26:02;;;;;;;7.30;3.30;;;;;;;5.10;84.24;100136.84;104882;1256;138570;-64
2023/12/29 04:28:29;;;;;;;8.50;3.60;;;;;;;5.07;84.35;100132.75;104808;1254;60589;-64
2023/12/29 04:30:55;;;;;;;8.60;4.20;;;;;;;5.05;84.39;100126.40;104942;1256;138333;-62
2023/12/29 04:33:22;;;;;;;7.00;3.20;;;;;;;5.06;84.57;100116.53;104951;1256;64998;-63
2023/12/29 04:35:49;;;;;;;5.50;3.30;;;;;;;5.06;84.59;100106.98;104954;1256;73685;-63
2023/12/29 04:38:18;;;;;;;12.60;3.90;;;;;;;5.06;84.57;100100.00;104829;1256;138114;-63
2023/12/29 04:40:45;;;;;;;8.50;3.20;;;;;;;5.09;84.73;100104.29;108982;1255;60721;-63
2023/12/29 04:43:12;;;;;;;7.60;3.50;;;;;;;5.14;84.80;100102.20;108916;1254;138117;-65
2023/12/29 04:45:38;;;;;;;7.40;3.70;;;;;;;5.19;84.93;100100.15;108844;1254;66265;-63
2023/12/29 04:48:05;;;;;;;7.10;3.50;;;;;;;5.26;84.91;100092.92;109019;1254;73129;-63
2023/12/29 04:50:32;;;;;;;6.70;3.30;;;;;;;5.36;84.96;100088.89;108893;1256;138044;-62
2023/12/29 04:52:59;;;;;;;5.30;3.10;;;;;;;5.45;84.93;100091.83;109035;1254;61816;-63
2023/12/29 04:55:25;;;;;;;7.90;3.70;;;;;;;5.52;84.87;100079.54;108865;1254;137734;-63
2023/12/29 04:57:52;;;;;;;6.60;3.10;;;;;;;5.59;84.79;100079.09;109096;1254;66657;-63
2023/12/29 05:00:19;;;;;;;11.80;3.50;;;;;;;5.62;84.65;100077.27;108910;1256;138631;-63
2023/12/29 05:02:46;;;;;;;9.30;3.30;;;;;;;5.61;84.43;100071.69;109033;1254;60374;-64
2023/12/29 05:05:12;;;;;;;7.00;3.40;;;;;;;5.59;84.33;100064.66;109020;1255;60819;-65
2023/12/29 05:07:39;;;;;;;10.00;3.90;;;;;;;5.61;84.40;100063.30;108913;1254;138431;-64
2023/12/29 05:10:06;;;;;;;5.80;3.40;;;;;;;5.63;84.37;100060.59;109015;1254;64456;-64
2023/12/29 05:12:33;;;;;;;6.80;3.40;;;;;;;5.66;84.42;100060.88;108903;1254;139198;-64
2023/12/29 05:15:00;;;;;;;9.20;3.90;;;;;;;5.72;84.44;100056.55;109031;1254;59787;-64
2023/12/29 05:17:26;;;;;;;6.50;3.40;;;;;;;5.78;84.47;100058.13;109042;1254;59729;-64
2023/12/29 05:19:53;;;;;;;7.00;3.30;;;;;;;5.83;84.46;100056.40;108877;1256;138321;-64
2023/12/29 05:22:20;;;;;;;6.30;3.40;;;;;;;5.91;84.52;100047.23;109036;1254;67255;-64
2023/12/29 05:24:46;;;;;;;7.90;3.40;;;;;;;5.96;84.36;100051.64;108896;1254;137919;-63
2023/12/29 05:27:13;;;;;;;5.90;2.90;;;;;;;6.01;84.44;100044.99;108978;1256;58836;-63
2023/12/29 05:29:41;;;;;;;6.00;3.40;;;;;;;6.06;84.35;100043.23;108892;1255;59867;-63
2023/12/29 05:32:08;;;;;;;13.20;3.30;;;;;;;6.12;84.21;100038.17;108844;1254;137779;-64
2023/12/29 05:34:35;;;;;;;7.10;3.00;;;;;;;6.16;84.11;100037.61;109107;1255;64183;-63
2023/12/29 05:37:02;;;;;;;9.50;2.90;;;;;;;6.17;83.99;100034.52;108901;1254;138092;-63
2023/12/29 05:39:29;;;;;;;6.60;2.50;;;;;;;6.16;83.79;100028.55;108997;1254;61697;-63
2023/12/29 05:41:55;;;;;;;5.00;2.80;;;;;;;6.14;83.71;100029.02;109032;1254;59855;-64
2023/12/29 05:44:23;;;;;;;6.90;3.30;;;;;;;6.13;83.66;100028.45;108866;1254;137964;-64
2023/12/29 05:46:49;;;;;;;5.70;2.90;;;;;;;6.12;83.66;100028.06;108465;1256;66135;-65
2023/12/29 05:49:16;;;;;;;5.30;2.50;;;;;;;6.12;83.65;100028.09;104816;1258;137920;-67
2023/12/29 05:51:44;;;;;;;9.10;3.00;;;;;;;6.12;83.62;100032.08;104943;1254;60652;-64
2023/12/29 05:54:11;;;;;;;4.80;2.80;;;;;;;6.12;83.68;100034.86;104754;1254;138239;-65
2023/12/29 05:56:37;;;;;;;5.60;2.70;;;;;;;6.13;83.66;100032.99;104939;1257;74641;-63
2023/12/29 05:59:04;;;;;;;4.30;2.90;;;;;;;6.15;83.75;100037.58;105001;1259;67249;-64
2023/12/29 06:01:31;;;;;;;6.40;3.10;;;;;;;6.16;83.76;100038.85;104806;1255;138010;-64
2023/12/29 06:03:57;;;;;;;6.80;2.90;;;;;;;6.18;83.72;100041.70;104920;1257;60172;-63
2023/12/29 06:06:24;;;;;;;4.40;2.90;;;;;;;6.19;83.74;100044.16;104887;1256;138460;-64
2023/12/29 06:08:51;;;;;;;6.90;3.20;;;;;;;6.20;83.73;100044.89;104693;1262;72107;-64
2023/12/29 06:11:18;;;;;;;6.00;2.90;;;;;;;6.20;83.60;100033.91;105008;1259;65615;-63
2023/12/29 06:13:45;;;;;;;5.00;3.00;;;;;;;6.20;83.62;100031.66;104813;1256;137934;-64
2023/12/29 06:16:17;;;;;;;7.80;3.40;;;;;;;6.23;83.61;100037.13;104693;1256;60477;-64
2023/12/29 06:18:44;;;;;;;6.90;3.60;;;;;;;6.25;83.60;100034.23;108909;1256;137992;-65
2023/12/29 06:21:11;;;;;;;5.40;2.70;;;;;;;6.28;83.50;100035.02;109027;1256;73856;-65
2023/12/29 06:23:37;;;;;;;9.20;3.20;;;;;;;6.29;83.51;100038.20;108950;1256;64605;-63
2023/12/29 06:26:04;;;;;;;5.20;2.90;;;;;;;6.31;83.53;100028.84;108926;1254;138205;-64
2023/12/29 06:28:31;;;;;;;5.50;3.40;;;;;;;6.32;83.46;100019.46;109008;1254;58302;-64
2023/12/29 06:30:57;;;;;;;6.70;3.00;;;;;;;6.31;83.24;100007.93;108943;1254;138189;-63
2023/12/29 06:33:24;;;;;;;5.80;3.20;;;;;;;6.28;83.11;100002.42;108778;1254;74013;-63
2023/12/29 06:35:51;;;;;;;7.20;4.00;;;;;;;6.25;83.10;100005.81;109141;1254;66817;-63
2023/12/29 06:38:18;;;;;;;9.40;4.20;;;;;;;6.26;83.15;100008.64;109004;1254;139187;-63
2023/12/29 06:40:45;;;;;;;8.70;3.70;;;;;;;6.28;83.16;100002.27;109105;1256;60268;-63
2023/12/29 06:43:11;;;;;;;8.40;4.00;;;;;;;6.30;83.25;100007.73;109032;1254;138018;-63
2023/12/29 06:45:38;;;;;;;6.00;3.30;;;;;;;6.35;83.21;100013.27;109185;1254;73895;-64
2023/12/29 06:48:05;;;;;;;7.60;3.50;;;;;;;6.40;83.27;100005.77;108955;1254;65641;-64
2023/12/29 06:50:32;;;;;;;7.50;3.40;;;;;;;6.46;83.18;100003.30;109040;1254;138322;-64
2023/12/29 06:52:59;;;;;;;7.40;3.50;;;;;;;6.49;83.16;99994.01;108995;1255;58902;-63
2023/12/29 06:55:25;;;;;;;6.30;3.50;;;;;;;6.53;83.09;99991.67;109103;1254;138642;-63
2023/12/29 06:57:52;;;;;;;8.30;3.50;;;;;;;6.56;83.00;99993.66;106698;1254;74988;-65
2023/12/29 07:00:19;;;;;;;8.80;4.60;;;;;;;6.58;83.02;99985.89;104838;1256;138462;-64
2023/12/29 07:02:45;;;;;;;13.00;5.30;;;;;;;6.60;82.87;99984.05;105033;1259;73562;-64
2023/12/29 07:05:12;;;;;;;12.90;6.40;;;;;;;6.59;82.78;99982.96;105148;1259;60536;-64
2023/12/29 07:07:39;;;;;;;7.80;4.60;;;;;;;6.60;82.83;99981.42;105046;1259;138184;-66
2023/12/29 07:10:06;;;;;;;12.30;5.80;;;;;;;6.62;82.84;99988.45;105075;1259;74275;-65
2023/12/29 07:12:33;;;;;;;16.10;7.80;;;;;;;6.64;82.83;99994.95;105000;1259;137478;-64
2023/12/29 07:15:00;;;;;;;8.00;3.90;;;;;;;6.65;82.76;99995.52;105011;1260;74022;-63
2023/12/29 07:17:27;;;;;;;12.00;6.30;;;;;;;6.65;82.77;99995.14;104781;1256;60536;-65
2023/12/29 07:19:54;;;;;;;13.20;7.30;;;;;;;6.65;82.73;100000.04;104975;1256;137910;-64
2023/12/29 07:22:20;;;;;;;9.20;4.50;;;;;;;6.66;82.74;99997.44;105077;1254;74002;-65
2023/12/29 07:24:47;;;;;;;7.80;4.10;;;;;;;6.66;82.70;99995.88;104962;1259;137825;-65
2023/12/29 07:27:14;;;;;;;7.70;4.00;;;;;;;6.69;82.81;99996.14;104958;1259;71837;-64
2023/12/29 07:29:40;;;;;;;11.50;6.60;;;;;;;6.72;82.75;99994.83;105006;1259;60553;-65
2023/12/29 07:32:07;;;;;;;13.80;5.40;;;;;;;6.72;82.69;99985.25;104963;1259;138970;-65
2023/12/29 07:34:34;;;;;;;9.00;5.50;;;;;;;6.77;82.76;99986.61;105259;1259;72751;-66
2023/12/29 07:37:00;;;;;;;14.10;7.60;;;;;;;6.79;82.75;99986.49;104958;1259;137662;-66
2023/12/29 07:39:27;;;;;;;33.90;16.70;;;;;;;6.81;82.82;99990.73;105160;1259;73351;-65
2023/12/29 07:41:54;;;;;;;58.60;34.90;;;;;;;6.84;82.91;99991.31;105093;1254;60508;-66
2023/12/29 07:44:21;;;;;;;11.90;7.30;;;;;;;6.86;83.01;99982.84;105035;1258;138614;-65
2023/12/29 07:46:47;;;;;;;5.70;3.50;;;;;;;6.86;82.99;99973.42;105144;1259;73037;-66
2023/12/29 07:49:14;;;;;;;9.80;5.80;;;;;;;6.87;83.02;99971.69;105143;1258;138661;-66
2023/12/29 07:51:42;;;;;;;8.40;5.40;;;;;;;6.88;83.03;99974.35;104997;1257;73679;-65
2023/12/29 07:54:09;;;;;;;11.30;4.70;;;;;;;6.88;83.02;99969.29;104983;1257;138037;-64
2023/12/29 07:56:37;;;;;;;10.40;4.90;;;;;;;6.90;83.09;99969.33;105137;1254;60941;-66
2023/12/29 07:59:04;;;;;;;4.80;3.20;;;;;;;6.90;83.09;99965.86;109079;1254;73211;-67
2023/12/29 08:01:31;;;;;;;4.70;3.30;;;;;;;6.91;82.97;99962.05;104916;1257;138078;-66
2023/12/29 08:03:58;;;;;;;8.80;3.10;;;;;;;6.91;82.88;99965.70;105234;1256;72938;-67
2023/12/29 08:06:24;;;;;;;6.10;2.90;;;;;;;6.89;82.94;99966.54;105025;1254;138586;-64
2023/12/29 08:08:51;;;;;;;7.90;2.90;;;;;;;6.90;82.92;99960.63;105117;1254;60368;-64
2023/12/29 08:11:18;;;;;;;7.40;3.20;;;;;;;6.91;82.89;99957.35;104970;1255;74520;-64
2023/12/29 08:13:47;;;;;;;9.40;4.00;;;;;;;6.92;82.90;99959.97;105056;1255;137855;-64
2023/12/29 08:16:14;;;;;;;7.70;3.50;;;;;;;6.92;82.95;99958.42;105114;1254;72870;-67
2023/12/29 08:18:40;;;;;;;37.60;12.90;;;;;;;6.94;82.88;99962.64;104987;1257;138006;-64
2023/12/29 08:21:07;;;;;;;74.70;27.00;;;;;;;6.97;82.83;99954.35;105186;1259;60460;-64
2023/12/29 08:23:33;;;;;;;68.10;26.80;;;;;;;7.00;82.86;99945.90;105137;1258;74670;-64
2023/12/29 08:26:02;;;;;;;39.40;19.00;;;;;;;7.02;82.80;99935.84;105051;1255;138225;-64
2023/12/29 08:28:29;;;;;;;38.70;18.50;;;;;;;7.04;82.66;99936.04;109221;1254;72204;-64
2023/12/29 08:30:56;;;;;;;29.70;14.60;;;;;;;7.06;82.66;99935.05;107773;1255;138519;-65
2023/12/29 08:33:23;;;;;;;24.60;12.90;;;;;;;7.08;82.62;99928.84;105151;1258;60576;-64
2023/12/29 08:35:49;;;;;;;18.30;9.00;;;;;;;7.11;82.54;99925.92;105055;1259;73066;-64
2023/12/29 08:38:16;;;;;;;12.40;7.80;;;;;;;7.13;82.48;99919.54;104988;1257;137904;-63
2023/12/29 08:40:43;;;;;;;18.20;9.30;;;;;;;7.15;82.37;99916.27;104922;1256;73037;-63
2023/12/29 08:43:09;;;;;;;17.50;8.60;;;;;;;7.17;82.34;99916.68;108947;1254;138162;-64
2023/12/29 08:45:38;;;;;;;7.70;5.50;;;;;;;7.20;82.41;99913.61;109240;1255;60034;-64
2023/12/29 08:48:05;;;;;;;11.00;8.10;;;;;;;7.25;82.35;99915.65;109035;1256;73987;-64
2023/12/29 08:50:32;;;;;;;12.20;9.00;;;;;;;7.29;82.25;99921.33;109008;1256;137502;-64
2023/12/29 08:52:58;;;;;;;10.20;6.60;;;;;;;7.32;82.17;99919.66;109087;1256;72083;-64
2023/12/29 08:55:25;;;;;;;9.30;5.90;;;;;;;7.37;82.06;99921.53;109055;1254;137402;-64
2023/12/29 08:57:52;;;;;;;9.60;5.30;;;;;;;7.41;82.07;99917.60;107376;1254;60463;-64
2023/12/29 09:00:18;;;;;;;8.10;5.60;;;;;;;7.46;81.99;99918.96;104982;1259;138466;-67
2023/12/29 09:02:46;;;;;;;9.50;6.50;;;;;;;7.51;81.96;99917.52;105065;1257;66610;-63
2023/12/29 09:05:13;;;;;;;9.50;6.00;;;;;;;7.56;81.81;99914.82;105033;1257;73228;-63
2023/12/29 09:07:39;;;;;;;14.90;9.70;;;;;;;7.62;81.79;99917.76;104758;1257;138155;-63
2023/12/29 09:10:11;;;;;;;26.30;16.90;;;;;;;7.67;81.81;99915.45;105158;1258;60457;-64
2023/12/29 09:12:38;;;;;;;21.40;14.40;;;;;;;7.75;81.74;99926.45;104935;1257;138238;-64
2023/12/29 09:15:06;;;;;;;9.30;5.70;;;;;;;7.84;81.74;99922.98;109226;1255;66538;-65
2023/12/29 09:17:33;;;;;;;9.20;5.90;;;;;;;7.91;81.56;99929.95;109217;1255;71375;-64
2023/12/29 09:20:00;;;;;;;20.90;13.30;;;;;;;7.99;81.54;99934.33;109115;1256;137703;-64
2023/12/29 09:22:27;;;;;;;25.20;13.50;;;;;;;8.08;81.48;99942.55;109048;1254;61581;-64
2023/12/29 09:24:55;;;;;;;35.90;19.70;;;;;;;8.12;81.38;99948.77;109114;1254;138164;-64
2023/12/29 09:27:21;;;;;;;22.30;13.00;;;;;;;8.12;81.38;99955.05;109184;1254;65401;-64
2023/12/29 09:29:49;;;;;;;25.10;15.30;;;;;;;8.10;81.42;99956.74;109228;1254;71844;-64
2023/12/29 09:32:16;;;;;;;18.50;10.30;;;;;;;8.08;81.49;99958.10;108910;1254;138284;-64
2023/12/29 09:34:42;;;;;;;16.20;9.50;;;;;;;8.03;81.49;99948.73;109240;1254;58263;-66
2023/12/29 09:37:09;;;;;;;15.90;10.10;;;;;;;7.96;81.44;99952.08;109130;1254;137947;-65
2023/12/29 09:39:35;;;;;;;10.00;6.70;;;;;;;7.91;81.59;99946.38;109066;1255;183820;-65
2023/12/29 09:42:03;;;;;;;12.90;7.90;;;;;;;7.88;81.68;99941.06;109195;1254;73813;-64
2023/12/29 09:44:30;;;;;;;14.20;9.50;;;;;;;7.85;81.81;99940.64;106608;1257;138233;-63
2023/12/29 09:47:01;;;;;;;11.90;6.80;;;;;;;7.82;81.82;99945.27;105035;1259;60718;-66
2023/12/29 09:49:31;;;;;;;16.50;11.00;;;;;;;7.81;82.01;99948.75;105045;1257;138543;-63
2023/12/29 09:51:58;;;;;;;10.80;9.70;;;;;;;7.83;82.14;99951.44;104750;1257;65712;-64
2023/12/29 09:54:25;;;;;;;10.80;9.20;;;;;;;7.85;82.10;99953.05;105055;1259;139050;-64
2023/12/29 09:56:51;;;;;;;8.10;6.80;;;;;;;7.87;82.15;99953.79;105097;1257;60559;-63
2023/12/29 09:59:18;;;;;;;8.10;4.10;;;;;;;7.91;82.22;99953.70;105161;1257;61349;-64
2023/12/29 10:01:45;;;;;;;7.10;3.80;;;;;;;7.95;82.31;99958.01;104829;1257;138247;-64
2023/12/29 10:04:11;;;;;;;6.90;3.80;;;;;;;7.99;82.41;99952.84;105059;1254;66730;-65
2023/12/29 10:06:40;;;;;;;4.00;2.60;;;;;;;8.01;82.35;99950.61;105030;1258;137934;-65
2023/12/29 10:09:08;;;;;;;3.90;2.30;;;;;;;8.02;82.37;99949.07;109188;1255;58642;-64
2023/12/29 10:11:35;;;;;;;5.80;3.80;;;;;;;8.04;82.33;99947.52;108965;1254;60474;-66
2023/12/29 10:14:05;;;;;;;5.40;2.70;;;;;;;8.06;82.30;99944.27;109092;1258;137865;-63
2023/12/29 10:16:39;;;;;;;7.30;3.10;;;;;;;8.09;82.25;99943.45;109038;1256;67550;-64
2023/12/29 10:19:41;;;;;;;6.00;4.40;;;;;;;8.15;82.24;99936.10;108945;1254;137807;-63
2023/12/29 10:22:17;;;;;;;5.20;3.50;;;;;;;8.21;82.12;99929.91;109035;1254;59041;-64
2023/12/29 10:24:45;;;;;;;7.30;4.20;;;;;;;8.27;82.03;99923.90;107950;1254;138568;-62
2023/12/29 10:27:13;;;;;;;4.90;2.90;;;;;;;8.30;81.89;99908.77;109233;1254;73919;-63
2023/12/29 10:29:39;;;;;;;5.90;3.30;;;;;;;8.34;81.89;99894.70;109037;1255;66106;-64
2023/12/29 10:32:07;;;;;;;5.20;3.40;;;;;;;8.38;81.77;99911.37;107919;1257;136886;-64
2023/12/29 10:34:33;;;;;;;5.50;3.00;;;;;;;8.39;81.63;99916.83;109246;1255;58286;-62
2023/12/29 10:37:08;;;;;;;5.30;2.80;;;;;;;8.37;81.43;99921.50;109130;1255;137957;-64
2023/12/29 10:39:36;;;;;;;4.00;2.80;;;;;;;8.35;81.42;99911.85;109206;1257;74128;-64
2023/12/29 10:42:07;;;;;;;4.30;2.50;;;;;;;8.37;81.49;99907.16;109253;1254;67804;-64
2023/12/29 10:44:35;;;;;;;4.90;2.90;;;;;;;8.41;81.38;99904.27;109013;1257;72548;-64
2023/12/29 10:47:11;;;;;;;4.00;2.20;;;;;;;8.41;81.38;99887.16;109108;1254;60068;-65
2023/12/29 10:49:38;;;;;;;5.00;2.70;;;;;;;8.42;81.32;99885.09;108975;1254;137773;-65
2023/12/29 10:52:14;;;;;;;5.90;3.50;;;;;;;8.45;81.38;99884.27;109211;1257;74938;-65
2023/12/29 10:54:45;;;;;;;5.70;2.60;;;;;;;8.44;81.20;99875.16;108977;1254;138874;-65
2023/12/29 10:57:12;;;;;;;5.60;3.10;;;;;;;8.39;80.97;99869.96;108120;1261;71303;-64
2023/12/29 10:59:39;;;;;;;2.40;2.10;;;;;;;8.33;80.95;99868.45;109156;1254;59618;-63
2023/12/29 11:02:08;;;;;;;6.20;2.60;;;;;;;8.27;81.01;99868.68;109144;1255;137655;-63
2023/12/29 11:04:34;;;;;;;3.60;2.40;;;;;;;8.25;81.10;99873.19;108964;1254;74044;-63
2023/12/29 11:07:01;;;;;;;4.40;2.10;;;;;;;8.24;81.17;99873.17;106464;1259;137887;-63
2023/12/29 11:09:29;;;;;;;3.10;2.10;;;;;;;8.26;81.28;99874.42;105094;1255;73738;-63
2023/12/29 11:11:58;;;;;;;3.10;2.30;;;;;;;8.30;81.40;99871.88;109049;1255;58337;-63
2023/12/29 11:14:24;;;;;;;3.40;2.30;;;;;;;8.32;81.27;99874.39;108900;1254;137783;-63
2023/12/29 11:16:52;;;;;;;7.90;2.50;;;;;;;8.31;81.12;99885.02;108984;1255;73242;-63
2023/12/29 11:19:18;;;;;;;3.10;2.20;;;;;;;8.28;81.17;99884.95;108962;1254;137869;-63
2023/12/29 11:21:45;;;;;;;6.40;2.50;;;;;;;8.26;81.06;99884.58;106739;1254;72683;-63